Time;durP1;ratioP1;P1;durP2;ratioP2;P2;SDS_P1;SDS_P2;PMS_P1;PMS_P2;Temp;Humidity;BMP_temperature;BMP_pressure;BME280_temperature;BME280_humidity;BME280_pressure;Samples;Min_cycle;Max_cycle;Signal;HPM_P1;HPM_P2
2021/07/07 00:00:27;;;;;;;6.97;2.88;;;;;;;15.49;69.60;100003.88;5058194;28;20056;-83
2021/07/07 00:02:54;;;;;;;12.90;3.93;;;;;;;15.46;69.64;100007.41;5057465;28;20053;-83
2021/07/07 00:05:22;;;;;;;5.85;2.83;;;;;;;15.44;69.72;100006.94;5056743;28;20045;-83
2021/07/07 00:07:49;;;;;;;6.80;2.70;;;;;;;15.42;69.93;100003.69;5058392;28;20053;-82
2021/07/07 00:10:18;;;;;;;6.45;3.17;;;;;;;15.46;69.71;100009.41;5057041;28;20064;-83
2021/07/07 00:12:47;;;;;;;7.63;3.42;;;;;;;15.43;69.69;100008.94;5058846;28;20049;-82
2021/07/07 00:15:18;;;;;;;7.43;2.83;;;;;;;15.43;69.77;100016.53;5056181;28;20050;-83
2021/07/07 00:17:48;;;;;;;7.30;2.45;;;;;;;15.43;69.72;100011.75;5059948;28;20071;-83
2021/07/07 00:20:18;;;;;;;6.75;2.58;;;;;;;15.39;69.82;100015.63;5056820;28;21228;-83
2021/07/07 00:22:45;;;;;;;;;;;;;;;15.32;69.77;100013.44;5057660;28;20057;-83
2021/07/07 00:25:13;;;;;;;5.63;2.40;;;;;;;15.23;70.17;100012.78;5055495;28;19921;-83
2021/07/07 00:27:41;;;;;;;5.60;3.25;;;;;;;15.22;70.08;100005.53;5057898;28;20061;-82
2021/07/07 00:30:09;;;;;;;6.45;2.85;;;;;;;15.11;70.53;100008.03;5056639;28;20057;-82
2021/07/07 00:32:37;;;;;;;6.32;2.92;;;;;;;15.13;70.42;100007.69;5056850;28;20052;-82
2021/07/07 00:35:07;;;;;;;6.05;2.70;;;;;;;15.10;70.73;100019.59;5056352;28;20049;-83
2021/07/07 00:37:34;;;;;;;7.25;2.78;;;;;;;15.07;70.59;100014.72;5055968;28;20056;-83
2021/07/07 00:40:03;;;;;;;7.68;3.30;;;;;;;15.04;71.49;100012.63;5056150;28;20405;-83
2021/07/07 00:42:30;;;;;;;6.75;3.50;;;;;;;15.02;71.72;100019.41;5056591;28;20409;-83
2021/07/07 00:44:57;;;;;;;7.78;3.60;;;;;;;15.02;71.71;100010.16;5056089;28;20056;-83
2021/07/07 00:47:25;;;;;;;5.03;3.00;;;;;;;15.04;71.59;100018.25;5056563;28;20049;-83
2021/07/07 00:49:52;;;;;;;8.93;3.65;;;;;;;15.03;71.34;100020.22;5056260;28;20474;-83
2021/07/07 00:52:21;;;;;;;6.50;3.45;;;;;;;15.02;71.62;100022.19;5056867;28;20053;-83
2021/07/07 00:54:48;;;;;;;9.13;3.10;;;;;;;15.03;71.17;100023.00;5056412;28;20075;-83
2021/07/07 00:57:19;;;;;;;5.90;3.13;;;;;;;15.04;71.37;100038.69;5056808;28;20064;-84
2021/07/07 00:59:46;;;;;;;8.15;3.65;;;;;;;15.02;71.74;100013.78;5056444;28;20053;-82
2021/07/07 01:02:18;;;;;;;8.10;3.25;;;;;;;15.06;71.46;100024.31;5056156;28;20049;-82
2021/07/07 01:04:45;;;;;;;7.45;3.10;;;;;;;15.04;71.00;100012.63;5056564;28;20379;-83
2021/07/07 01:07:13;;;;;;;6.80;3.08;;;;;;;15.02;70.74;100021.38;5056805;28;20056;-83
2021/07/07 01:09:41;;;;;;;5.18;3.15;;;;;;;14.95;71.03;100024.81;5055938;28;20053;-83
2021/07/07 01:12:11;;;;;;;6.97;3.10;;;;;;;14.88;71.26;100016.16;5057125;28;20045;-82
2021/07/07 01:14:38;;;;;;;7.78;3.10;;;;;;;14.87;71.69;100014.53;5048774;28;20387;-83
2021/07/07 01:17:06;;;;;;;6.38;3.25;;;;;;;14.86;72.16;100012.91;5056031;28;20049;-82
2021/07/07 01:19:33;;;;;;;9.20;3.70;;;;;;;14.86;72.28;100026.09;5057029;28;20055;-82
2021/07/07 01:22:02;;;;;;;7.65;3.58;;;;;;;14.86;71.85;100018.50;5056458;28;20057;-83
2021/07/07 01:24:29;;;;;;;7.45;3.00;;;;;;;14.85;72.13;100019.69;5055891;28;20052;-82
2021/07/07 01:26:57;;;;;;;7.00;3.55;;;;;;;14.86;71.70;100017.69;5055943;28;20053;-82
2021/07/07 01:29:24;;;;;;;6.90;3.28;;;;;;;14.85;71.90;100025.28;5056137;28;20052;-83
2021/07/07 01:31:51;;;;;;;5.72;3.00;;;;;;;14.82;72.13;100017.56;5056451;28;20056;-82
2021/07/07 01:34:18;;;;;;;16.80;3.42;;;;;;;14.81;71.83;100010.34;5056168;28;20048;-83
2021/07/07 01:36:48;;;;;;;7.57;3.63;;;;;;;14.79;71.99;100005.09;5056845;28;20060;-82
2021/07/07 01:39:17;;;;;;;7.03;3.45;;;;;;;14.78;72.57;100008.25;5056513;28;20049;-83
2021/07/07 01:41:44;;;;;;;10.93;3.70;;;;;;;14.73;72.19;100011.31;5057390;28;20053;-83
2021/07/07 01:44:12;;;;;;;7.75;3.45;;;;;;;14.69;72.34;100011.19;5056451;28;20483;-82
2021/07/07 01:46:39;;;;;;;8.30;3.40;;;;;;;14.71;72.02;100016.44;5058121;28;20048;-83
2021/07/07 01:49:07;;;;;;;11.10;3.70;;;;;;;14.68;72.13;100020.78;5060710;28;20060;-83
2021/07/07 01:51:36;;;;;;;9.20;3.50;;;;;;;14.70;71.76;100017.59;5060175;28;20056;-83
2021/07/07 01:54:04;;;;;;;8.13;3.20;;;;;;;14.68;71.99;100011.53;5059992;28;20052;-83
2021/07/07 01:56:33;;;;;;;10.27;3.45;;;;;;;14.70;71.94;100023.22;5059584;28;20060;-83
2021/07/07 01:59:00;;;;;;;5.63;3.60;;;;;;;14.67;71.16;100026.72;5060449;28;20075;-83
2021/07/07 02:01:28;;;;;;;6.40;3.30;;;;;;;14.59;71.58;100018.13;5060418;28;20052;-83
2021/07/07 02:03:56;;;;;;;7.80;3.55;;;;;;;14.56;71.63;100018.81;5059740;28;20116;-83
2021/07/07 02:06:23;;;;;;;8.10;3.83;;;;;;;14.53;72.25;100016.69;5060275;28;20064;-83
2021/07/07 02:08:50;;;;;;;11.55;3.72;;;;;;;14.54;72.21;100020.28;5059767;28;20060;-83
2021/07/07 02:11:20;;;;;;;6.60;3.25;;;;;;;14.49;73.04;100017.72;5060733;28;20075;-83
2021/07/07 02:13:49;;;;;;;;;;;;;;;14.44;72.87;100015.16;5060283;28;20080;-83
2021/07/07 02:16:16;;;;;;;5.75;3.50;;;;;;;14.44;72.86;100012.38;5059828;28;20227;-83
2021/07/07 02:18:43;;;;;;;8.45;4.10;;;;;;;14.43;72.73;100008.75;5060284;28;20052;-83
2021/07/07 02:21:10;;;;;;;7.57;4.43;;;;;;;14.44;72.74;100010.38;5060887;28;20386;-83
2021/07/07 02:23:38;;;;;;;7.30;4.50;;;;;;;14.45;72.88;100012.03;5060988;28;20076;-83
2021/07/07 02:26:06;;;;;;;9.00;3.70;;;;;;;14.42;73.05;100004.31;5060728;28;20048;-83
2021/07/07 02:28:33;;;;;;;4.40;3.40;;;;;;;14.40;72.70;100007.47;5059735;28;20402;-83
2021/07/07 02:31:04;;;;;;;7.40;3.90;;;;;;;14.39;72.66;100007.81;5059973;28;20053;-83
2021/07/07 02:33:31;;;;;;;5.85;3.40;;;;;;;14.34;72.94;100002.44;5058871;28;20064;-83
2021/07/07 02:35:59;;;;;;;12.02;4.45;;;;;;;14.35;72.93;99998.50;5058262;28;20044;-83
2021/07/07 02:38:28;;;;;;;6.95;3.85;;;;;;;14.33;72.96;99998.03;5058792;28;20064;-83
2021/07/07 02:40:56;;;;;;;6.80;3.50;;;;;;;14.33;72.89;99998.84;5059162;28;20056;-83
2021/07/07 02:43:23;;;;;;;10.32;4.25;;;;;;;14.30;72.68;99999.53;5058883;28;20186;-83
2021/07/07 02:45:51;;;;;;;5.97;3.30;;;;;;;14.35;72.08;100001.28;5058848;28;20371;-82
2021/07/07 02:48:21;;;;;;;9.68;3.53;;;;;;;14.29;72.14;100008.28;5059359;28;20048;-82
2021/07/07 02:50:48;;;;;;;;;;;;;;;14.18;72.55;100007.94;5059989;28;20053;-84
2021/07/07 02:53:18;;;;;;;10.93;3.45;;;;;;;14.16;72.93;100015.88;5059459;28;19928;-82
2021/07/07 02:55:45;;;;;;;;;;;;;;;14.06;73.47;100005.94;5060469;28;20053;-83
2021/07/07 02:58:13;;;;;;;9.70;4.00;;;;;;;14.09;73.08;100010.03;5059159;28;19944;-83
2021/07/07 03:00:42;;;;;;;7.60;4.03;;;;;;;14.09;73.71;100015.63;5058887;28;20486;-84
2021/07/07 03:03:11;;;;;;;5.72;3.90;;;;;;;14.13;73.56;100023.00;5058833;28;20056;-83
2021/07/07 03:05:43;;;;;;;9.50;4.35;;;;;;;14.10;73.71;100017.28;5059475;28;20053;-83
2021/07/07 03:08:11;;;;;;;7.85;3.97;;;;;;;14.06;73.59;100017.16;5059088;28;20056;-82
2021/07/07 03:10:39;;;;;;;12.43;5.10;;;;;;;14.09;73.71;100021.22;5057968;28;20387;-83
2021/07/07 03:13:07;;;;;;;7.75;3.92;;;;;;;14.10;74.27;100022.88;5059511;28;20044;-82
2021/07/07 03:15:36;;;;;;;8.15;4.50;;;;;;;14.10;73.90;100032.09;5057577;28;20509;-82
2021/07/07 03:18:04;;;;;;;9.53;4.63;;;;;;;14.10;73.99;100026.50;5046938;28;20045;-83
2021/07/07 03:20:32;;;;;;;8.25;4.63;;;;;;;14.09;73.89;100033.28;5056763;28;20483;-82
2021/07/07 03:23:01;;;;;;;10.18;4.72;;;;;;;14.10;74.32;100036.88;5039041;28;20053;-83
2021/07/07 03:25:28;;;;;;;9.57;4.70;;;;;;;14.09;74.34;100046.44;5039073;28;20061;-83
2021/07/07 03:27:56;;;;;;;10.85;5.45;;;;;;;14.05;74.20;100049.16;5038821;28;20058;-83
2021/07/07 03:30:25;;;;;;;5.65;3.97;;;;;;;14.07;74.42;100052.41;5038500;28;20050;-83
2021/07/07 03:32:53;;;;;;;8.32;4.10;;;;;;;14.07;74.18;100041.22;5057597;28;20048;-83
2021/07/07 03:35:20;;;;;;;7.72;4.40;;;;;;;14.03;73.97;100048.66;5057767;28;20103;-83
2021/07/07 03:37:48;;;;;;;7.82;4.25;;;;;;;13.97;74.19;100050.06;5058023;28;20056;-83
2021/07/07 03:40:17;;;;;;;8.05;4.63;;;;;;;13.98;73.79;100046.91;5059407;28;20052;-83
2021/07/07 03:42:45;;;;;;;7.82;4.20;;;;;;;13.97;73.94;100052.84;5057704;28;20477;-83
2021/07/07 03:45:16;;;;;;;7.82;4.40;;;;;;;14.01;73.68;100051.00;5057389;28;20049;-83
2021/07/07 03:47:43;;;;;;;7.88;4.28;;;;;;;13.93;74.06;100049.94;5056488;28;20049;-83
2021/07/07 03:50:12;;;;;;;10.57;5.28;;;;;;;13.96;74.30;100059.63;5057597;28;20057;-83
2021/07/07 03:52:40;;;;;;;11.30;4.40;;;;;;;13.98;74.31;100058.13;5057669;28;20049;-83
2021/07/07 03:55:09;;;;;;;11.20;4.57;;;;;;;14.02;73.98;100061.03;5056896;28;20052;-82
2021/07/07 03:57:38;;;;;;;9.37;4.03;;;;;;;14.10;74.42;100062.09;5058887;28;20071;-83
2021/07/07 04:00:09;;;;;;;9.45;3.80;;;;;;;14.13;74.28;100065.03;5058270;28;20509;-82
2021/07/07 04:02:36;;;;;;;8.57;4.00;;;;;;;14.19;74.64;100076.78;5058092;28;20057;-83
2021/07/07 04:05:04;;;;;;;12.30;4.88;;;;;;;14.26;74.87;100076.22;5058332;28;20500;-82
2021/07/07 04:07:32;;;;;;;6.43;4.03;;;;;;;14.30;74.60;100071.53;5058218;28;20057;-83
2021/07/07 04:09:59;;;;;;;8.63;4.15;;;;;;;14.36;74.24;100073.78;5058031;28;20056;-82
2021/07/07 04:12:27;;;;;;;8.20;3.95;;;;;;;14.40;74.09;100076.69;5058778;28;20049;-83
2021/07/07 04:14:55;;;;;;;6.72;3.60;;;;;;;14.48;73.64;100077.75;5058374;28;20052;-82
2021/07/07 04:17:23;;;;;;;9.38;3.95;;;;;;;14.50;73.10;100073.44;5057507;28;20064;-81
2021/07/07 04:19:50;;;;;;;6.43;3.88;;;;;;;14.60;72.95;100077.78;5057980;28;20057;-83
2021/07/07 04:22:17;;;;;;;10.02;4.28;;;;;;;14.59;73.08;100074.16;5056733;28;20061;-83
2021/07/07 04:24:45;;;;;;;11.73;4.40;;;;;;;14.68;72.46;100071.25;5057921;28;20057;-82
2021/07/07 04:27:12;;;;;;;7.85;3.70;;;;;;;14.72;72.72;100077.78;5056675;28;20397;-83
2021/07/07 04:29:39;;;;;;;5.60;3.63;;;;;;;14.71;73.21;100072.50;5057207;28;20053;-83
2021/07/07 04:32:08;;;;;;;6.57;3.50;;;;;;;14.84;72.33;100079.72;5056819;28;20053;-82
2021/07/07 04:34:36;;;;;;;6.05;3.95;;;;;;;14.91;72.79;100079.97;5057672;28;20438;-82
2021/07/07 04:37:03;;;;;;;5.32;3.83;;;;;;;15.02;72.45;100085.91;5056829;28;20044;-83
2021/07/07 04:39:31;;;;;;;6.45;3.58;;;;;;;15.12;72.45;100088.22;5057423;28;20049;-83
2021/07/07 04:41:59;;;;;;;8.43;3.75;;;;;;;15.21;71.63;100091.69;5056899;28;20053;-83
2021/07/07 04:44:26;;;;;;;5.78;3.83;;;;;;;15.26;71.15;100087.81;5057696;28;20053;-83
2021/07/07 04:46:53;;;;;;;5.72;3.63;;;;;;;15.34;71.10;100086.84;5056952;28;20056;-83
2021/07/07 04:49:22;;;;;;;10.07;3.80;;;;;;;15.39;71.27;100085.78;5057184;28;20474;-83
2021/07/07 04:51:49;;;;;;;7.30;3.67;;;;;;;15.45;71.21;100087.16;5057342;28;20048;-83
2021/07/07 04:54:17;;;;;;;6.80;3.38;;;;;;;15.45;71.61;100094.75;5056841;28;20053;-83
2021/07/07 04:56:45;;;;;;;8.23;3.53;;;;;;;15.55;71.77;100092.25;5057899;28;20052;-84
2021/07/07 04:59:12;;;;;;;7.32;4.22;;;;;;;15.56;71.82;100099.53;5057721;28;20497;-83
2021/07/07 05:01:40;;;;;;;9.52;4.38;;;;;;;15.58;71.57;100102.78;5056590;28;20505;-82
2021/07/07 05:04:08;;;;;;;8.80;3.72;;;;;;;15.59;71.18;100095.19;5057209;28;20073;-82
2021/07/07 05:06:36;;;;;;;7.65;4.32;;;;;;;15.61;71.07;100104.06;5057642;28;20657;-83
2021/07/07 05:09:03;;;;;;;8.90;3.85;;;;;;;15.68;71.33;100104.25;5056505;28;20049;-83
2021/07/07 05:11:31;;;;;;;7.38;3.47;;;;;;;15.77;71.49;100104.13;5055485;28;20049;-83
2021/07/07 05:13:58;;;;;;;8.10;3.95;;;;;;;15.82;71.30;100099.06;5056952;28;20071;-83
2021/07/07 05:16:25;;;;;;;7.28;4.35;;;;;;;15.92;71.28;100096.94;5055034;28;20045;-83
2021/07/07 05:18:53;;;;;;;6.18;3.63;;;;;;;16.05;71.47;100098.47;5054519;28;20052;-83
2021/07/07 05:21:20;;;;;;;7.35;3.33;;;;;;;16.16;71.05;100093.94;5057069;28;20576;-83
2021/07/07 05:23:49;;;;;;;8.10;3.20;;;;;;;16.26;71.02;100097.41;5058354;28;20060;-83
2021/07/07 05:26:16;;;;;;;7.68;3.08;;;;;;;16.41;70.96;100094.59;5058716;28;20044;-82
2021/07/07 05:28:44;;;;;;;8.23;3.13;;;;;;;16.52;70.76;100094.84;5058008;28;20048;-83
2021/07/07 05:31:13;;;;;;;7.03;2.70;;;;;;;16.66;70.37;100097.19;5058586;28;20064;-82
2021/07/07 05:33:40;;;;;;;;;;;;;;;16.72;70.31;100097.75;5051050;28;20060;-83
2021/07/07 05:36:10;;;;;;;6.38;2.85;;;;;;;16.84;70.45;100106.91;5058272;28;19921;-83
2021/07/07 05:38:38;;;;;;;8.40;3.55;;;;;;;16.95;70.51;100106.34;5058738;28;20053;-83
2021/07/07 05:41:07;;;;;;;9.00;3.05;;;;;;;17.09;70.20;100103.03;5058271;28;20063;-83
2021/07/07 05:43:35;;;;;;;6.40;2.95;;;;;;;17.22;69.99;100104.56;5058356;28;20049;-82
2021/07/07 05:46:02;;;;;;;4.63;2.90;;;;;;;17.28;69.80;100102.25;5058251;28;20053;-83
2021/07/07 05:48:32;;;;;;;5.90;3.25;;;;;;;17.49;69.56;100104.69;5059084;28;20486;-83
2021/07/07 05:50:59;;;;;;;7.32;2.40;;;;;;;17.73;69.10;100101.56;5059861;28;20068;-82
2021/07/07 05:53:28;;;;;;;8.23;2.80;;;;;;;17.94;68.21;100097.59;5059046;28;20057;-83
2021/07/07 05:55:55;;;;;;;6.70;2.53;;;;;;;18.09;67.95;100093.03;5061077;28;20057;-83
2021/07/07 05:58:24;;;;;;;5.82;2.65;;;;;;;18.24;65.73;100103.34;5050172;28;20064;-82
2021/07/07 06:00:51;;;;;;;4.10;1.67;;;;;;;18.43;65.82;100108.13;5055430;28;20489;-84
2021/07/07 06:03:19;;;;;;;7.43;2.45;;;;;;;18.48;64.85;100109.78;5060090;28;20055;-83
2021/07/07 06:05:46;;;;;;;5.50;2.10;;;;;;;18.67;64.43;100110.53;5060225;28;20049;-83
2021/07/07 06:08:13;;;;;;;6.10;2.05;;;;;;;18.92;63.14;100115.81;5052070;28;20060;-83
2021/07/07 06:10:43;;;;;;;3.67;2.03;;;;;;;19.11;61.97;100117.69;5040289;28;20061;-82
2021/07/07 06:13:10;;;;;;;4.40;1.88;;;;;;;19.14;61.91;100125.38;5055760;28;20068;-83
2021/07/07 06:15:39;;;;;;;5.72;1.70;;;;;;;19.35;60.87;100130.50;5052290;28;20057;-83
2021/07/07 06:18:07;;;;;;;7.68;2.13;;;;;;;19.51;60.57;100115.38;5054423;28;20049;-83
2021/07/07 06:20:35;;;;;;;6.63;2.17;;;;;;;19.77;60.02;100125.84;5043237;28;20053;-82
2021/07/07 06:23:02;;;;;;;4.20;1.50;;;;;;;20.04;58.74;100126.53;5059108;28;20053;-84
2021/07/07 06:25:30;;;;;;;5.07;1.88;;;;;;;20.24;58.46;100125.16;5063035;28;20049;-82
2021/07/07 06:27:57;;;;;;;4.85;1.67;;;;;;;20.44;57.91;100128.56;5063003;28;20049;-85
2021/07/07 06:30:26;;;;;;;5.78;2.05;;;;;;;20.63;56.47;100133.19;5061352;28;20044;-84
2021/07/07 06:32:57;;;;;;;6.45;2.50;;;;;;;20.66;56.84;100137.25;5062039;28;20048;-83
2021/07/07 06:35:25;;;;;;;8.30;2.20;;;;;;;20.88;55.75;100135.41;5062696;28;20048;-84
2021/07/07 06:37:53;;;;;;;5.13;1.92;;;;;;;21.28;54.25;100137.28;5060004;28;20049;-84
2021/07/07 06:40:21;;;;;;;5.07;2.15;;;;;;;21.62;53.85;100142.75;5060027;28;20060;-83
2021/07/07 06:42:49;;;;;;;4.55;1.88;;;;;;;21.96;53.16;100139.63;5060160;28;20100;-84
2021/07/07 06:45:19;;;;;;;5.40;1.55;;;;;;;22.27;52.54;100143.81;5059986;28;20075;-84
2021/07/07 06:47:46;;;;;;;4.78;1.77;;;;;;;22.45;50.43;100146.69;5060309;28;20049;-84
2021/07/07 06:50:16;;;;;;;7.90;2.47;;;;;;;22.52;51.02;100148.72;5060512;28;20060;-84
2021/07/07 06:52:44;;;;;;;6.15;1.88;;;;;;;22.70;50.74;100146.69;5059454;28;20057;-84
2021/07/07 06:55:11;;;;;;;3.75;1.73;;;;;;;23.11;50.59;100151.16;5057552;28;20064;-85
2021/07/07 06:57:39;;;;;;;11.38;2.70;;;;;;;23.30;49.87;100156.38;5055033;28;20045;-82
2021/07/07 07:00:09;;;;;;;5.68;1.88;;;;;;;23.47;49.71;100146.19;5045830;28;20132;-81
2021/07/07 07:02:36;;;;;;;5.32;1.73;;;;;;;23.38;48.63;100145.00;5051233;28;20160;-83
2021/07/07 07:05:06;;;;;;;5.88;1.65;;;;;;;23.46;48.45;100144.56;5045370;28;20053;-83
2021/07/07 07:07:35;;;;;;;4.25;1.70;;;;;;;23.44;48.98;100152.72;5049222;28;20046;-83
2021/07/07 07:10:03;;;;;;;4.88;1.75;;;;;;;23.32;49.36;100153.13;5050242;28;20056;-83
2021/07/07 07:12:31;;;;;;;5.65;1.63;;;;;;;23.25;49.11;100153.16;5044995;28;20049;-83
2021/07/07 07:14:58;;;;;;;4.97;1.67;;;;;;;23.27;48.90;100154.38;5050081;28;20081;-84
2021/07/07 07:17:26;;;;;;;5.63;1.90;;;;;;;23.48;48.13;100167.72;5044534;28;20049;-85
2021/07/07 07:19:54;;;;;;;5.18;1.92;;;;;;;23.56;47.86;100159.16;5055467;28;20479;-84
2021/07/07 07:22:21;;;;;;;3.58;1.50;;;;;;;23.59;47.37;100161.19;5052465;28;20045;-84
2021/07/07 07:24:51;;;;;;;4.10;1.52;;;;;;;23.69;47.53;100160.34;5047569;28;20064;-82
2021/07/07 07:27:19;;;;;;;3.97;1.80;;;;;;;23.78;48.23;100166.44;5046560;28;20049;-83
2021/07/07 07:29:47;;;;;;;4.05;1.58;;;;;;;23.89;47.92;100166.38;5061045;28;20057;-84
2021/07/07 07:32:15;;;;;;;5.57;1.80;;;;;;;23.57;48.00;100166.47;5047414;28;20056;-85
2021/07/07 07:34:43;;;;;;;6.38;1.95;;;;;;;23.94;46.95;100168.81;5045461;28;20064;-84
2021/07/07 07:37:14;;;;;;;3.50;1.40;;;;;;;23.93;47.45;100177.75;5040616;28;20057;-84
2021/07/07 07:39:44;;;;;;;5.18;1.52;;;;;;;23.96;46.93;100182.59;5044969;28;20057;-84
2021/07/07 07:42:15;;;;;;;5.05;1.65;;;;;;;24.19;46.51;100165.84;5049885;28;20053;-85
2021/07/07 07:44:44;;;;;;;4.50;1.77;;;;;;;24.20;45.84;100170.28;5045625;28;20053;-85
2021/07/07 07:47:11;;;;;;;5.03;1.60;;;;;;;24.03;46.56;100171.19;5051318;28;20056;-85
2021/07/07 07:49:39;;;;;;;5.53;1.90;;;;;;;24.10;46.80;100169.09;5042622;28;20053;-85
2021/07/07 07:52:07;;;;;;;4.57;1.92;;;;;;;24.74;45.31;100174.81;5055682;28;20056;-85
2021/07/07 07:54:35;;;;;;;7.25;1.67;;;;;;;24.68;45.23;100172.44;5046431;28;20052;-85
2021/07/07 07:57:04;;;;;;;4.53;1.70;;;;;;;24.79;44.21;100168.69;5056134;28;20057;-85
2021/07/07 07:59:33;;;;;;;3.67;1.90;;;;;;;24.98;44.01;100173.81;5045425;28;20057;-82
2021/07/07 08:02:00;;;;;;;6.82;2.00;;;;;;;25.00;44.98;100182.75;5051815;28;20406;-85
2021/07/07 08:04:28;;;;;;;6.93;2.10;;;;;;;24.85;44.15;100173.53;5045426;28;20056;-84
2021/07/07 08:06:55;;;;;;;5.50;1.88;;;;;;;25.08;43.86;100172.09;5057933;28;20060;-82
2021/07/07 08:09:22;;;;;;;4.40;1.90;;;;;;;25.38;43.46;100179.97;5054765;28;20061;-83
2021/07/07 08:11:51;;;;;;;7.03;2.00;;;;;;;25.96;41.33;100174.44;5051272;28;20054;-82
2021/07/07 08:14:18;;;;;;;4.47;1.90;;;;;;;25.70;41.60;100178.78;5054219;28;20525;-83
2021/07/07 08:16:49;;;;;;;5.30;1.90;;;;;;;26.93;39.17;100187.31;5047546;28;20487;-85
2021/07/07 08:19:16;;;;;;;4.70;1.67;;;;;;;28.11;37.30;100170.75;5052341;28;20065;-84
2021/07/07 08:21:44;;;;;;;7.13;2.53;;;;;;;29.26;34.62;100172.97;5052109;28;20052;-84
2021/07/07 08:24:11;;;;;;;5.25;1.80;;;;;;;29.68;34.31;100181.66;5055276;28;20053;-84
2021/07/07 08:26:38;;;;;;;4.40;1.60;;;;;;;29.92;34.37;100174.41;5044721;28;20057;-85
2021/07/07 08:29:06;;;;;;;4.75;1.48;;;;;;;30.58;32.75;100179.78;5051718;28;20056;-87
2021/07/07 08:31:33;;;;;;;4.68;1.60;;;;;;;30.41;31.95;100184.03;5049639;28;20386;-85
2021/07/07 08:34:02;;;;;;;4.20;1.80;;;;;;;29.61;33.24;100187.56;5054440;28;20355;-82
2021/07/07 08:36:30;;;;;;;6.97;1.85;;;;;;;29.53;32.91;100187.00;5059267;28;20474;-84
2021/07/07 08:38:57;;;;;;;5.03;1.60;;;;;;;28.65;33.73;100189.63;5056266;28;20061;-84
2021/07/07 08:41:25;;;;;;;4.85;2.03;;;;;;;29.42;33.29;100181.53;5046744;28;20068;-83
2021/07/07 08:43:52;;;;;;;3.40;1.38;;;;;;;28.98;33.44;100197.41;5045542;28;20061;-82
2021/07/07 08:46:19;;;;;;;4.22;1.45;;;;;;;29.29;33.59;100192.13;5047289;28;20052;-85
2021/07/07 08:48:46;;;;;;;3.70;1.30;;;;;;;29.59;32.81;100192.97;5048788;28;20440;-85
2021/07/07 08:51:15;;;;;;;3.67;1.80;;;;;;;30.33;31.59;100197.84;5052679;28;20924;-85
2021/07/07 08:53:45;;;;;;;4.68;1.85;;;;;;;31.08;29.51;100198.28;5053254;28;20380;-85
2021/07/07 08:56:13;;;;;;;4.80;1.50;;;;;;;30.74;30.24;100196.94;5057457;28;20053;-83
2021/07/07 08:58:40;;;;;;;4.80;2.13;;;;;;;30.92;29.11;100195.56;5047285;28;20052;-85
2021/07/07 09:01:08;;;;;;;4.93;1.90;;;;;;;31.54;28.81;100198.75;5044180;28;20060;-87
2021/07/07 09:03:35;;;;;;;4.75;1.60;;;;;;;32.40;27.10;100193.91;5041202;28;20065;-85
2021/07/07 09:06:05;;;;;;;6.35;1.70;;;;;;;34.01;25.26;100192.03;5046460;28;20049;-87
2021/07/07 09:08:36;;;;;;;5.45;1.73;;;;;;;35.00;23.34;100196.38;5050334;28;20057;-82
2021/07/07 09:11:19;;;;;;;5.90;1.98;;;;;;;35.90;21.72;100204.09;5055847;28;20045;-81
2021/07/07 09:13:48;;;;;;;4.60;2.10;;;;;;;36.59;22.03;100199.00;5048151;28;20053;-81
2021/07/07 09:16:19;;;;;;;5.40;2.15;;;;;;;37.22;20.41;100189.97;5043816;28;20790;-82
2021/07/07 09:18:48;;;;;;;4.35;1.73;;;;;;;36.76;20.79;100199.31;5055374;28;20049;-83
2021/07/07 09:21:27;;;;;;;4.38;2.13;;;;;;;37.10;20.54;100191.13;5045793;28;20067;-83
2021/07/07 09:23:57;;;;;;;6.88;2.45;;;;;;;36.82;20.92;100196.50;5048659;28;20053;-84
2021/07/07 09:26:29;;;;;;;4.10;1.50;;;;;;;35.81;21.43;100195.50;5048919;28;20049;-84
2021/07/07 09:28:56;;;;;;;4.00;1.50;;;;;;;34.97;22.58;100201.06;5052844;28;20495;-79
2021/07/07 09:31:34;;;;;;;5.53;1.63;;;;;;;34.12;23.35;100206.78;5046986;28;20057;-82
2021/07/07 09:34:13;;;;;;;4.27;1.63;;;;;;;33.62;23.91;100215.66;5052942;28;20398;-82
2021/07/07 09:36:44;;;;;;;4.57;1.98;;;;;;;33.64;24.45;100206.50;5056249;28;20053;-82
2021/07/07 09:39:14;;;;;;;7.28;1.95;;;;;;;35.44;22.17;100207.34;5057728;28;20801;-84
2021/07/07 09:41:41;;;;;;;4.43;1.88;;;;;;;36.50;20.28;100207.84;5058650;28;20048;-84
2021/07/07 09:44:10;;;;;;;4.90;2.35;;;;;;;36.29;20.42;100213.56;5042322;28;20481;-81
2021/07/07 09:46:38;;;;;;;3.38;1.33;;;;;;;36.43;19.95;100208.22;5049698;28;20056;-84
2021/07/07 09:49:06;;;;;;;4.10;1.30;;;;;;;36.07;20.32;100207.31;5047748;28;20056;-85
2021/07/07 09:51:34;;;;;;;4.30;2.03;;;;;;;36.74;19.18;100208.50;5049881;28;20052;-84
2021/07/07 09:54:03;;;;;;;4.72;1.60;;;;;;;35.44;20.62;100207.34;5054857;28;20049;-83
2021/07/07 09:56:33;;;;;;;4.35;1.35;;;;;;;34.95;21.21;100212.31;5047142;28;20053;-81
2021/07/07 09:59:01;;;;;;;3.47;1.75;;;;;;;35.43;20.63;100212.34;5045114;28;20057;-84
2021/07/07 10:01:29;;;;;;;3.15;1.50;;;;;;;34.94;21.63;100204.91;5046300;28;20049;-81
2021/07/07 10:03:58;;;;;;;4.70;1.57;;;;;;;34.32;22.36;100217.84;5035399;28;20045;-81
2021/07/07 10:06:26;;;;;;;4.05;1.50;;;;;;;33.39;23.35;100214.19;5049472;28;20480;-82
2021/07/07 10:08:54;;;;;;;4.03;2.10;;;;;;;34.52;22.23;100225.97;5053342;28;20474;-81
2021/07/07 10:11:22;;;;;;;3.75;1.73;;;;;;;36.17;20.37;100220.44;5049090;28;20111;-78
2021/07/07 10:13:51;;;;;;;3.33;1.30;;;;;;;36.28;19.99;100217.75;5054702;28;20049;-80
2021/07/07 10:16:19;;;;;;;4.57;2.47;;;;;;;37.24;18.62;100218.50;5051038;28;20045;-82
2021/07/07 10:18:47;;;;;;;3.80;1.63;;;;;;;36.74;19.31;100208.50;5046417;28;20171;-81
2021/07/07 10:21:16;;;;;;;3.67;1.23;;;;;;;36.17;20.25;100215.44;5053171;28;20727;-81
2021/07/07 10:23:44;;;;;;;4.00;1.95;;;;;;;37.80;18.84;100213.44;5051146;28;20483;-81
2021/07/07 10:26:12;;;;;;;4.97;2.03;;;;;;;39.34;16.81;100212.09;5045735;28;20490;-81
2021/07/07 10:28:40;;;;;;;;;;;;;;;40.14;16.38;100219.00;5051337;28;20048;-81
2021/07/07 10:31:09;;;;;;;4.15;1.63;;;;;;;38.57;16.38;100211.81;5052670;28;19929;-83
2021/07/07 10:33:39;;;;;;;4.93;1.35;;;;;;;37.16;18.69;100206.50;5060831;28;20060;-84
2021/07/07 10:36:18;;;;;;;4.65;1.38;;;;;;;35.88;20.24;100215.38;5056857;28;20057;-83
2021/07/07 10:38:54;;;;;;;4.97;1.42;;;;;;;35.64;21.50;100232.81;5052530;28;20065;-82
2021/07/07 10:41:58;;;;;;;4.10;1.63;;;;;;;35.02;21.56;100216.94;5047053;28;20053;-82
2021/07/07 10:44:49;;;;;;;3.75;1.67;;;;;;;35.20;20.92;100230.53;5055055;28;20049;-81
2021/07/07 10:47:31;;;;;;;5.13;2.30;;;;;;;37.29;18.71;100223.59;5055942;28;20060;-80
2021/07/07 10:49:59;;;;;;;5.35;1.95;;;;;;;38.65;16.64;100214.28;5049866;28;20104;-81
2021/07/07 10:52:35;;;;;;;3.25;1.55;;;;;;;39.33;16.25;100209.69;5047663;28;20045;-84
2021/07/07 10:55:05;;;;;;;3.95;1.42;;;;;;;37.43;17.37;100216.91;5050565;28;20498;-83
2021/07/07 10:57:36;;;;;;;3.08;1.20;;;;;;;35.34;19.00;100229.78;5058404;28;20056;-82
2021/07/07 11:00:07;;;;;;;6.18;1.50;;;;;;;33.13;22.21;100234.63;5055354;28;20063;-82
2021/07/07 11:02:36;;;;;;;5.93;1.45;;;;;;;31.92;23.25;100235.22;5050920;28;20057;-82
2021/07/07 11:05:04;;;;;;;;;;;;;;;30.92;24.71;100244.44;5061659;28;20060;-83
2021/07/07 11:07:37;;;;;;;6.60;1.35;;;;;;;30.19;26.04;100233.50;5064733;28;20309;-83
2021/07/07 11:10:08;;;;;;;4.35;1.50;;;;;;;29.78;26.46;100242.91;5054545;28;20049;-83
2021/07/07 11:13:14;;;;;;;5.70;1.90;;;;;;;30.07;26.18;100242.91;5057299;28;20414;-84
2021/07/07 11:15:44;;;;;;;3.42;1.40;;;;;;;29.59;27.54;100247.50;5052155;28;20053;-84
2021/07/07 11:18:24;;;;;;;3.15;1.20;;;;;;;28.95;28.96;100247.88;5060764;28;20057;-85
2021/07/07 11:21:00;;;;;;;3.95;1.30;;;;;;;28.66;28.80;100250.59;5060018;28;20053;-84
2021/07/07 11:23:28;;;;;;;4.95;1.73;;;;;;;28.28;29.82;100253.88;5055573;28;20137;-83
2021/07/07 11:25:56;;;;;;;4.13;1.50;;;;;;;28.04;30.64;100238.84;5061349;28;20063;-82
2021/07/07 11:28:23;;;;;;;5.87;1.70;;;;;;;28.94;29.19;100249.13;5054660;28;20041;-84
2021/07/07 11:30:53;;;;;;;3.13;1.92;;;;;;;31.08;25.54;100250.09;5040519;28;20050;-84
2021/07/07 11:33:22;;;;;;;4.00;1.40;;;;;;;30.41;27.41;100250.13;5049197;28;20049;-83